sensor_id;sensor_type;location;lat;lon;timestamp;temperature;humidity
47921;DHT22;33686;48.770;9.186;2022-08-05T05:16:53;25.30;99.90
47921;DHT22;33686;48.770;9.186;2022-08-05T05:19:18;26.50;99.90
47921;DHT22;33686;48.770;9.186;2022-08-05T05:21:44;27.10;98.70
47921;DHT22;33686;48.770;9.186;2022-08-05T05:24:09;27.50;97.90
47921;DHT22;33686;48.770;9.186;2022-08-05T05:26:35;28.10;96.80
47921;DHT22;33686;48.770;9.186;2022-08-05T05:29:00;28.40;96.20
47921;DHT22;33686;48.770;9.186;2022-08-05T05:31:26;28.30;95.90
47921;DHT22;33686;48.770;9.186;2022-08-05T05:33:51;28.30;96.10
47921;DHT22;33686;48.770;9.186;2022-08-05T05:36:17;28.70;95.50
47921;DHT22;33686;48.770;9.186;2022-08-05T05:38:42;28.80;95.00
47921;DHT22;33686;48.770;9.186;2022-08-05T05:41:08;28.70;95.20
47921;DHT22;33686;48.770;9.186;2022-08-05T05:43:33;29.60;94.40
47921;DHT22;33686;48.770;9.186;2022-08-05T05:45:59;29.70;93.80
47921;DHT22;33686;48.770;9.186;2022-08-05T05:48:24;29.30;94.50
47921;DHT22;33686;48.770;9.186;2022-08-05T05:50:50;29.40;94.20
47921;DHT22;33686;48.770;9.186;2022-08-05T05:53:16;29.50;94.30
47921;DHT22;33686;48.770;9.186;2022-08-05T05:55:42;29.60;94.20
47921;DHT22;33686;48.770;9.186;2022-08-05T05:58:07;30.10;93.60
47921;DHT22;33686;48.770;9.186;2022-08-05T06:00:33;29.70;93.70
47921;DHT22;33686;48.770;9.186;2022-08-05T06:02:59;29.30;94.30
47921;DHT22;33686;48.770;9.186;2022-08-05T06:05:25;29.40;94.40
47921;DHT22;33686;48.770;9.186;2022-08-05T06:07:51;30.40;93.20
47921;DHT22;33686;48.770;9.186;2022-08-05T06:10:16;29.60;93.70
47921;DHT22;33686;48.770;9.186;2022-08-05T06:12:41;29.60;93.60
47921;DHT22;33686;48.770;9.186;2022-08-05T06:15:07;30.10;93.00
47921;DHT22;33686;48.770;9.186;2022-08-05T06:17:33;29.50;93.40
47921;DHT22;33686;48.770;9.186;2022-08-05T06:19:59;28.80;93.80
47921;DHT22;33686;48.770;9.186;2022-08-05T06:22:28;27.80;95.10
47921;DHT22;33686;48.770;9.186;2022-08-05T06:24:54;27.70;95.70
47921;DHT22;33686;48.770;9.186;2022-08-05T06:27:20;28.70;94.70
47921;DHT22;33686;48.770;9.186;2022-08-05T06:29:46;28.90;94.20
47921;DHT22;33686;48.770;9.186;2022-08-05T06:32:11;28.80;94.20
47921;DHT22;33686;48.770;9.186;2022-08-05T06:34:37;29.80;93.40
47921;DHT22;33686;48.770;9.186;2022-08-05T06:37:02;30.20;92.80
47921;DHT22;33686;48.770;9.186;2022-08-05T06:39:28;30.40;92.20
47921;DHT22;33686;48.770;9.186;2022-08-05T06:41:57;31.20;91.30
47921;DHT22;33686;48.770;9.186;2022-08-05T06:44:23;30.90;91.30
47921;DHT22;33686;48.770;9.186;2022-08-05T06:46:48;29.80;92.50
47921;DHT22;33686;48.770;9.186;2022-08-05T06:49:14;31.20;91.40
47921;DHT22;33686;48.770;9.186;2022-08-05T06:51:39;30.40;91.90
47921;DHT22;33686;48.770;9.186;2022-08-05T06:54:05;30.50;91.90
47921;DHT22;33686;48.770;9.186;2022-08-05T06:56:31;31.00;91.30
47921;DHT22;33686;48.770;9.186;2022-08-05T06:58:56;31.10;91.30
47921;DHT22;33686;48.770;9.186;2022-08-05T07:01:22;31.60;90.70
47921;DHT22;33686;48.770;9.186;2022-08-05T07:03:48;31.10;90.60
47921;DHT22;33686;48.770;9.186;2022-08-05T07:06:13;30.90;90.80
47921;DHT22;33686;48.770;9.186;2022-08-05T07:08:40;30.60;90.80
47921;DHT22;33686;48.770;9.186;2022-08-05T07:11:05;30.50;91.30
47921;DHT22;33686;48.770;9.186;2022-08-05T07:13:32;30.10;91.40
47921;DHT22;33686;48.770;9.186;2022-08-05T07:16:16;30.00;91.70
47921;DHT22;33686;48.770;9.186;2022-08-05T07:19:00;30.80;91.00
47921;DHT22;33686;48.770;9.186;2022-08-05T07:21:26;31.30;90.60
47921;DHT22;33686;48.770;9.186;2022-08-05T07:23:51;31.70;90.40
47921;DHT22;33686;48.770;9.186;2022-08-05T07:26:17;31.40;90.10
47921;DHT22;33686;48.770;9.186;2022-08-05T07:28:42;31.60;90.20
47921;DHT22;33686;48.770;9.186;2022-08-05T07:31:08;32.00;89.60
47921;DHT22;33686;48.770;9.186;2022-08-05T07:33:34;32.50;89.60
47921;DHT22;33686;48.770;9.186;2022-08-05T07:35:59;32.20;89.10
47921;DHT22;33686;48.770;9.186;2022-08-05T07:38:25;32.50;88.70
47921;DHT22;33686;48.770;9.186;2022-08-05T07:40:51;32.00;88.70
47921;DHT22;33686;48.770;9.186;2022-08-05T07:43:16;31.80;89.30
47921;DHT22;33686;48.770;9.186;2022-08-05T07:45:44;32.00;88.20
47921;DHT22;33686;48.770;9.186;2022-08-05T07:48:10;31.50;88.70
47921;DHT22;33686;48.770;9.186;2022-08-05T07:50:35;31.80;88.60
47921;DHT22;33686;48.770;9.186;2022-08-05T07:53:01;32.10;87.40
47921;DHT22;33686;48.770;9.186;2022-08-05T07:55:26;32.20;87.10
47921;DHT22;33686;48.770;9.186;2022-08-05T07:57:52;32.40;87.30
47921;DHT22;33686;48.770;9.186;2022-08-05T08:00:17;32.20;87.20
47921;DHT22;33686;48.770;9.186;2022-08-05T08:02:43;31.40;88.00
47921;DHT22;33686;48.770;9.186;2022-08-05T08:05:09;31.50;87.60
47921;DHT22;33686;48.770;9.186;2022-08-05T08:07:35;32.70;86.30
47921;DHT22;33686;48.770;9.186;2022-08-05T08:10:01;33.30;86.20
47921;DHT22;33686;48.770;9.186;2022-08-05T08:12:26;33.80;82.90
47921;DHT22;33686;48.770;9.186;2022-08-05T08:14:52;34.00;81.70
47921;DHT22;33686;48.770;9.186;2022-08-05T08:17:17;32.70;81.70
47921;DHT22;33686;48.770;9.186;2022-08-05T08:19:43;33.20;81.40
47921;DHT22;33686;48.770;9.186;2022-08-05T08:22:09;31.20;83.30
47921;DHT22;33686;48.770;9.186;2022-08-05T08:24:35;31.30;83.00
47921;DHT22;33686;48.770;9.186;2022-08-05T08:27:01;31.80;82.20
47921;DHT22;33686;48.770;9.186;2022-08-05T08:29:27;31.40;82.60
47921;DHT22;33686;48.770;9.186;2022-08-05T08:31:52;31.40;83.20
47921;DHT22;33686;48.770;9.186;2022-08-05T08:34:18;31.80;82.30
47921;DHT22;33686;48.770;9.186;2022-08-05T08:36:44;31.50;83.00
47921;DHT22;33686;48.770;9.186;2022-08-05T08:39:10;33.20;81.60
47921;DHT22;33686;48.770;9.186;2022-08-05T08:41:35;33.60;80.60
47921;DHT22;33686;48.770;9.186;2022-08-05T08:44:01;33.80;80.30
47921;DHT22;33686;48.770;9.186;2022-08-05T08:46:28;33.60;80.20
47921;DHT22;33686;48.770;9.186;2022-08-05T08:48:55;34.00;79.80
47921;DHT22;33686;48.770;9.186;2022-08-05T08:51:21;33.30;79.90
47921;DHT22;33686;48.770;9.186;2022-08-05T08:53:47;33.90;79.40
47921;DHT22;33686;48.770;9.186;2022-08-05T08:56:14;33.70;78.60
47921;DHT22;33686;48.770;9.186;2022-08-05T08:58:40;32.40;80.70
47921;DHT22;33686;48.770;9.186;2022-08-05T09:01:06;32.90;80.60
47921;DHT22;33686;48.770;9.186;2022-08-05T09:03:32;33.60;79.10
47921;DHT22;33686;48.770;9.186;2022-08-05T09:05:58;34.30;78.50
47921;DHT22;33686;48.770;9.186;2022-08-05T09:08:23;34.50;78.00
47921;DHT22;33686;48.770;9.186;2022-08-05T09:10:49;35.50;76.80
47921;DHT22;33686;48.770;9.186;2022-08-05T09:13:15;34.00;77.20
47921;DHT22;33686;48.770;9.186;2022-08-05T09:15:41;33.40;78.50
47921;DHT22;33686;48.770;9.186;2022-08-05T09:18:07;34.40;78.60
47921;DHT22;33686;48.770;9.186;2022-08-05T09:20:33;35.00;76.10
47921;DHT22;33686;48.770;9.186;2022-08-05T09:23:03;34.00;77.00
47921;DHT22;33686;48.770;9.186;2022-08-05T09:25:29;33.60;76.80
47921;DHT22;33686;48.770;9.186;2022-08-05T09:27:54;32.90;77.50
47921;DHT22;33686;48.770;9.186;2022-08-05T09:30:20;33.40;77.50
47921;DHT22;33686;48.770;9.186;2022-08-05T09:32:46;33.20;77.00
47921;DHT22;33686;48.770;9.186;2022-08-05T09:35:12;33.00;77.60
47921;DHT22;33686;48.770;9.186;2022-08-05T09:37:47;32.60;78.00
47921;DHT22;33686;48.770;9.186;2022-08-05T09:40:33;33.20;76.80
47921;DHT22;33686;48.770;9.186;2022-08-05T09:42:59;33.50;76.90
47921;DHT22;33686;48.770;9.186;2022-08-05T09:45:35;33.40;76.80
47921;DHT22;33686;48.770;9.186;2022-08-05T09:48:17;32.60;77.60
47921;DHT22;33686;48.770;9.186;2022-08-05T09:50:47;32.80;77.70
47921;DHT22;33686;48.770;9.186;2022-08-05T09:53:13;33.10;76.90
47921;DHT22;33686;48.770;9.186;2022-08-05T09:55:38;32.30;77.80
47921;DHT22;33686;48.770;9.186;2022-08-05T09:58:13;32.40;78.20
47921;DHT22;33686;48.770;9.186;2022-08-05T10:00:50;31.90;78.00
47921;DHT22;33686;48.770;9.186;2022-08-05T10:03:16;32.30;77.70
47921;DHT22;33686;48.770;9.186;2022-08-05T10:05:41;32.30;77.80
47921;DHT22;33686;48.770;9.186;2022-08-05T10:08:08;32.50;78.00
47921;DHT22;33686;48.770;9.186;2022-08-05T10:10:38;32.60;77.80
47921;DHT22;33686;48.770;9.186;2022-08-05T10:13:10;33.30;76.70
47921;DHT22;33686;48.770;9.186;2022-08-05T10:15:37;33.20;76.20
47921;DHT22;33686;48.770;9.186;2022-08-05T10:18:16;32.70;77.80
47921;DHT22;33686;48.770;9.186;2022-08-05T10:20:44;32.80;77.40
47921;DHT22;33686;48.770;9.186;2022-08-05T10:23:11;33.40;76.70
47921;DHT22;33686;48.770;9.186;2022-08-05T10:25:37;33.60;76.20
47921;DHT22;33686;48.770;9.186;2022-08-05T10:28:04;33.60;75.80
47921;DHT22;33686;48.770;9.186;2022-08-05T10:30:29;33.30;76.60
47921;DHT22;33686;48.770;9.186;2022-08-05T10:32:56;33.40;76.40
47921;DHT22;33686;48.770;9.186;2022-08-05T10:35:22;33.20;76.10
47921;DHT22;33686;48.770;9.186;2022-08-05T10:37:48;33.00;76.50
47921;DHT22;33686;48.770;9.186;2022-08-05T10:40:26;31.80;78.00
47921;DHT22;33686;48.770;9.186;2022-08-05T10:42:53;31.30;78.40
47921;DHT22;33686;48.770;9.186;2022-08-05T10:45:26;31.30;78.50
47921;DHT22;33686;48.770;9.186;2022-08-05T10:47:52;31.40;78.50
47921;DHT22;33686;48.770;9.186;2022-08-05T10:50:18;31.30;78.30
47921;DHT22;33686;48.770;9.186;2022-08-05T10:52:48;31.10;78.30
47921;DHT22;33686;48.770;9.186;2022-08-05T10:55:24;31.20;78.30
47921;DHT22;33686;48.770;9.186;2022-08-05T10:58:05;31.80;78.00
47921;DHT22;33686;48.770;9.186;2022-08-05T11:00:30;32.00;77.60
47921;DHT22;33686;48.770;9.186;2022-08-05T11:05:28;32.10;77.30
47921;DHT22;33686;48.770;9.186;2022-08-05T11:10:23;32.20;77.50
47921;DHT22;33686;48.770;9.186;2022-08-05T11:12:49;31.80;78.10
47921;DHT22;33686;48.770;9.186;2022-08-05T11:17:41;31.60;78.00
47921;DHT22;33686;48.770;9.186;2022-08-05T11:20:08;31.60;77.80
47921;DHT22;33686;48.770;9.186;2022-08-05T11:22:52;31.30;78.60
47921;DHT22;33686;48.770;9.186;2022-08-05T11:25:36;31.40;78.70
47921;DHT22;33686;48.770;9.186;2022-08-05T11:33:26;32.00;78.00
47921;DHT22;33686;48.770;9.186;2022-08-05T11:35:52;32.10;78.00
47921;DHT22;33686;48.770;9.186;2022-08-05T11:38:18;31.80;77.60
47921;DHT22;33686;48.770;9.186;2022-08-05T11:41:04;31.50;78.80
47921;DHT22;33686;48.770;9.186;2022-08-05T11:43:30;31.40;78.30
47921;DHT22;33686;48.770;9.186;2022-08-05T11:45:56;31.40;78.50
47921;DHT22;33686;48.770;9.186;2022-08-05T11:48:22;31.60;78.20
47921;DHT22;33686;48.770;9.186;2022-08-05T11:50:48;31.70;78.50
47921;DHT22;33686;48.770;9.186;2022-08-05T11:53:14;31.90;78.00
47921;DHT22;33686;48.770;9.186;2022-08-05T11:55:56;31.70;78.40
47921;DHT22;33686;48.770;9.186;2022-08-05T11:58:41;31.50;78.20
47921;DHT22;33686;48.770;9.186;2022-08-05T12:01:08;31.30;78.50
47921;DHT22;33686;48.770;9.186;2022-08-05T12:03:42;31.60;78.40
47921;DHT22;33686;48.770;9.186;2022-08-05T12:06:08;31.90;79.60
47921;DHT22;33686;48.770;9.186;2022-08-05T12:08:43;32.40;77.70
47921;DHT22;33686;48.770;9.186;2022-08-05T12:11:09;32.30;77.50
47921;DHT22;33686;48.770;9.186;2022-08-05T12:13:36;32.40;77.70
47921;DHT22;33686;48.770;9.186;2022-08-05T12:16:02;32.40;78.10
47921;DHT22;33686;48.770;9.186;2022-08-05T12:18:32;32.40;79.10
47921;DHT22;33686;48.770;9.186;2022-08-05T12:21:08;31.80;79.30
47921;DHT22;33686;48.770;9.186;2022-08-05T12:23:33;31.40;79.60
47921;DHT22;33686;48.770;9.186;2022-08-05T12:25:59;31.30;80.20
47921;DHT22;33686;48.770;9.186;2022-08-05T12:28:31;31.30;80.20
47921;DHT22;33686;48.770;9.186;2022-08-05T12:30:57;31.30;80.50
47921;DHT22;33686;48.770;9.186;2022-08-05T12:33:23;31.30;80.30
47921;DHT22;33686;48.770;9.186;2022-08-05T12:35:48;31.40;80.40
47921;DHT22;33686;48.770;9.186;2022-08-05T12:38:14;31.10;80.70
47921;DHT22;33686;48.770;9.186;2022-08-05T12:40:39;31.00;81.30
47921;DHT22;33686;48.770;9.186;2022-08-05T12:43:05;31.00;81.50
47921;DHT22;33686;48.770;9.186;2022-08-05T12:45:31;30.70;81.70
47921;DHT22;33686;48.770;9.186;2022-08-05T12:47:56;30.80;81.90
47921;DHT22;33686;48.770;9.186;2022-08-05T12:50:22;30.80;81.70
47921;DHT22;33686;48.770;9.186;2022-08-05T12:52:55;30.80;81.90
47921;DHT22;33686;48.770;9.186;2022-08-05T12:55:22;30.70;81.90
47921;DHT22;33686;48.770;9.186;2022-08-05T12:57:48;30.90;82.30
47921;DHT22;33686;48.770;9.186;2022-08-05T13:00:19;30.80;81.90
47921;DHT22;33686;48.770;9.186;2022-08-05T13:02:45;30.70;81.80
47921;DHT22;33686;48.770;9.186;2022-08-05T13:05:11;30.80;81.80
47921;DHT22;33686;48.770;9.186;2022-08-05T13:07:37;30.80;81.70
47921;DHT22;33686;48.770;9.186;2022-08-05T13:10:04;30.80;81.70
47921;DHT22;33686;48.770;9.186;2022-08-05T13:12:37;31.00;81.70
47921;DHT22;33686;48.770;9.186;2022-08-05T13:15:03;31.10;81.60
47921;DHT22;33686;48.770;9.186;2022-08-05T13:17:30;31.40;80.80
47921;DHT22;33686;48.770;9.186;2022-08-05T13:20:16;31.30;81.00
47921;DHT22;33686;48.770;9.186;2022-08-05T13:22:49;31.70;80.50
47921;DHT22;33686;48.770;9.186;2022-08-05T13:25:15;31.50;80.30
47921;DHT22;33686;48.770;9.186;2022-08-05T13:27:42;31.50;80.60
47921;DHT22;33686;48.770;9.186;2022-08-05T13:30:08;31.70;80.70
47921;DHT22;33686;48.770;9.186;2022-08-05T13:32:34;31.50;80.60
47921;DHT22;33686;48.770;9.186;2022-08-05T13:35:00;31.50;80.80
47921;DHT22;33686;48.770;9.186;2022-08-05T13:37:26;31.40;80.30
47921;DHT22;33686;48.770;9.186;2022-08-05T13:39:51;31.30;80.40
47921;DHT22;33686;48.770;9.186;2022-08-05T13:42:20;31.30;80.60
47921;DHT22;33686;48.770;9.186;2022-08-05T13:44:46;31.50;80.30
47921;DHT22;33686;48.770;9.186;2022-08-05T13:47:14;31.60;80.50
47921;DHT22;33686;48.770;9.186;2022-08-05T13:49:40;31.80;80.00
47921;DHT22;33686;48.770;9.186;2022-08-05T13:52:12;31.70;80.10
47921;DHT22;33686;48.770;9.186;2022-08-05T13:54:39;31.60;80.70
47921;DHT22;33686;48.770;9.186;2022-08-05T13:57:04;31.70;80.40
47921;DHT22;33686;48.770;9.186;2022-08-05T13:59:30;31.90;80.20
47921;DHT22;33686;48.770;9.186;2022-08-05T14:01:56;31.90;79.90
47921;DHT22;33686;48.770;9.186;2022-08-05T14:04:22;31.70;79.50
47921;DHT22;33686;48.770;9.186;2022-08-05T14:07:06;31.50;79.90
47921;DHT22;33686;48.770;9.186;2022-08-05T14:09:32;31.50;79.50
47921;DHT22;33686;48.770;9.186;2022-08-05T14:11:58;31.60;80.30
47921;DHT22;33686;48.770;9.186;2022-08-05T14:14:23;32.00;79.50
47921;DHT22;33686;48.770;9.186;2022-08-05T14:16:49;32.40;79.00
47921;DHT22;33686;48.770;9.186;2022-08-05T14:19:15;32.40;79.00
47921;DHT22;33686;48.770;9.186;2022-08-05T14:21:41;31.90;79.20
47921;DHT22;33686;48.770;9.186;2022-08-05T14:24:07;31.60;79.40
47921;DHT22;33686;48.770;9.186;2022-08-05T14:26:35;31.40;79.70
47921;DHT22;33686;48.770;9.186;2022-08-05T14:29:01;31.60;79.70
47921;DHT22;33686;48.770;9.186;2022-08-05T14:31:26;31.40;79.20
47921;DHT22;33686;48.770;9.186;2022-08-05T14:33:52;31.30;79.80
47921;DHT22;33686;48.770;9.186;2022-08-05T14:36:18;31.00;80.20
47921;DHT22;33686;48.770;9.186;2022-08-05T14:38:43;31.00;80.60
47921;DHT22;33686;48.770;9.186;2022-08-05T14:41:09;30.90;81.00
47921;DHT22;33686;48.770;9.186;2022-08-05T14:43:35;30.90;81.40
47921;DHT22;33686;48.770;9.186;2022-08-05T14:46:00;30.60;81.80
47921;DHT22;33686;48.770;9.186;2022-08-05T14:48:26;30.80;81.80
47921;DHT22;33686;48.770;9.186;2022-08-05T14:50:52;30.80;81.90
47921;DHT22;33686;48.770;9.186;2022-08-05T14:53:17;30.70;82.10
47921;DHT22;33686;48.770;9.186;2022-08-05T14:55:43;30.50;82.60
47921;DHT22;33686;48.770;9.186;2022-08-05T14:58:09;30.40;82.80
47921;DHT22;33686;48.770;9.186;2022-08-05T15:00:35;30.20;83.60
47921;DHT22;33686;48.770;9.186;2022-08-05T15:03:00;29.90;84.50
47921;DHT22;33686;48.770;9.186;2022-08-05T15:05:26;29.60;85.50
47921;DHT22;33686;48.770;9.186;2022-08-05T15:07:51;29.40;85.90
47921;DHT22;33686;48.770;9.186;2022-08-05T15:10:17;29.40;86.20
47921;DHT22;33686;48.770;9.186;2022-08-05T15:12:43;29.50;86.30
47921;DHT22;33686;48.770;9.186;2022-08-05T15:15:09;29.50;87.30
47921;DHT22;33686;48.770;9.186;2022-08-05T15:17:34;29.60;89.00
47921;DHT22;33686;48.770;9.186;2022-08-05T15:20:01;29.60;91.40
47921;DHT22;33686;48.770;9.186;2022-08-05T15:22:27;28.10;95.90
47921;DHT22;33686;48.770;9.186;2022-08-05T15:24:53;27.30;99.90
47921;DHT22;33686;48.770;9.186;2022-08-05T15:27:18;26.90;99.90
47921;DHT22;33686;48.770;9.186;2022-08-05T15:29:44;26.40;99.90
47921;DHT22;33686;48.770;9.186;2022-08-05T15:32:09;26.30;99.90
47921;DHT22;33686;48.770;9.186;2022-08-05T15:34:35;26.30;99.90
47921;DHT22;33686;48.770;9.186;2022-08-05T15:37:00;26.40;99.90
47921;DHT22;33686;48.770;9.186;2022-08-05T15:39:26;26.60;99.90
47921;DHT22;33686;48.770;9.186;2022-08-05T15:41:51;26.80;99.90
47921;DHT22;33686;48.770;9.186;2022-08-05T15:44:17;27.00;99.90
47921;DHT22;33686;48.770;9.186;2022-08-05T15:46:42;27.10;99.90
47921;DHT22;33686;48.770;9.186;2022-08-05T15:49:08;27.20;99.90
47921;DHT22;33686;48.770;9.186;2022-08-05T15:51:33;27.30;99.90
47921;DHT22;33686;48.770;9.186;2022-08-05T15:53:59;27.10;99.90
47921;DHT22;33686;48.770;9.186;2022-08-05T15:56:24;27.20;99.90
47921;DHT22;33686;48.770;9.186;2022-08-05T15:58:50;27.40;99.90
47921;DHT22;33686;48.770;9.186;2022-08-05T16:01:15;27.30;99.90
47921;DHT22;33686;48.770;9.186;2022-08-05T16:03:43;27.40;99.90
47921;DHT22;33686;48.770;9.186;2022-08-05T16:06:09;27.40;99.90
47921;DHT22;33686;48.770;9.186;2022-08-05T16:08:34;27.40;99.90
47921;DHT22;33686;48.770;9.186;2022-08-05T16:11:00;27.50;99.90
47921;DHT22;33686;48.770;9.186;2022-08-05T16:13:26;27.50;99.90
47921;DHT22;33686;48.770;9.186;2022-08-05T16:15:51;27.70;99.50
47921;DHT22;33686;48.770;9.186;2022-08-05T16:18:17;27.50;99.30
47921;DHT22;33686;48.770;9.186;2022-08-05T16:20:43;27.40;99.60
47921;DHT22;33686;48.770;9.186;2022-08-05T16:23:08;27.10;99.30
47921;DHT22;33686;48.770;9.186;2022-08-05T16:25:34;27.10;99.30
47921;DHT22;33686;48.770;9.186;2022-08-05T16:28:03;27.40;99.60
47921;DHT22;33686;48.770;9.186;2022-08-05T16:30:29;27.40;99.20
47921;DHT22;33686;48.770;9.186;2022-08-05T16:32:56;27.20;98.80
47921;DHT22;33686;48.770;9.186;2022-08-05T16:35:22;27.00;98.50
47921;DHT22;33686;48.770;9.186;2022-08-05T16:37:47;27.20;98.80
47921;DHT22;33686;48.770;9.186;2022-08-05T16:40:13;26.90;98.60
47921;DHT22;33686;48.770;9.186;2022-08-05T16:42:39;26.80;98.70
47921;DHT22;33686;48.770;9.186;2022-08-05T16:45:05;26.80;98.60
47921;DHT22;33686;48.770;9.186;2022-08-05T16:47:30;26.80;98.10
47921;DHT22;33686;48.770;9.186;2022-08-05T16:49:56;27.10;98.00
47921;DHT22;33686;48.770;9.186;2022-08-05T16:52:21;27.10;97.90
47921;DHT22;33686;48.770;9.186;2022-08-05T16:54:47;27.10;97.90
47921;DHT22;33686;48.770;9.186;2022-08-05T16:57:13;26.90;97.90
47921;DHT22;33686;48.770;9.186;2022-08-05T16:59:38;26.90;98.00
47921;DHT22;33686;48.770;9.186;2022-08-05T17:02:04;26.90;97.90
47921;DHT22;33686;48.770;9.186;2022-08-05T17:04:29;26.90;98.50
47921;DHT22;33686;48.770;9.186;2022-08-05T17:06:56;26.80;98.10
47921;DHT22;33686;48.770;9.186;2022-08-05T17:09:24;26.80;98.00
47921;DHT22;33686;48.770;9.186;2022-08-05T17:11:50;26.80;98.00
47921;DHT22;33686;48.770;9.186;2022-08-05T17:14:16;26.80;98.00
47921;DHT22;33686;48.770;9.186;2022-08-05T17:16:41;26.60;98.20
47921;DHT22;33686;48.770;9.186;2022-08-05T17:19:07;26.50;98.30
47921;DHT22;33686;48.770;9.186;2022-08-05T17:21:32;26.40;98.50
47921;DHT22;33686;48.770;9.186;2022-08-05T17:23:58;26.40;98.60
47921;DHT22;33686;48.770;9.186;2022-08-05T17:26:24;26.30;98.70
47921;DHT22;33686;48.770;9.186;2022-08-05T17:28:49;26.20;98.90
47921;DHT22;33686;48.770;9.186;2022-08-05T17:31:15;26.40;98.70
47921;DHT22;33686;48.770;9.186;2022-08-05T17:33:41;26.30;98.60
47921;DHT22;33686;48.770;9.186;2022-08-05T17:36:06;26.40;98.60
47921;DHT22;33686;48.770;9.186;2022-08-05T17:38:32;26.20;98.80
47921;DHT22;33686;48.770;9.186;2022-08-05T17:40:57;26.20;98.90
47921;DHT22;33686;48.770;9.186;2022-08-05T17:43:23;26.00;99.10
47921;DHT22;33686;48.770;9.186;2022-08-05T17:45:48;26.00;99.20
47921;DHT22;33686;48.770;9.186;2022-08-05T17:48:14;26.00;99.20
47921;DHT22;33686;48.770;9.186;2022-08-05T17:50:40;26.00;99.30
47921;DHT22;33686;48.770;9.186;2022-08-05T17:53:05;26.10;99.30
47921;DHT22;33686;48.770;9.186;2022-08-05T17:55:31;26.00;99.10
47921;DHT22;33686;48.770;9.186;2022-08-05T17:57:57;26.00;99.30
47921;DHT22;33686;48.770;9.186;2022-08-05T18:00:24;26.10;99.20
47921;DHT22;33686;48.770;9.186;2022-08-05T18:02:50;25.80;99.40
47921;DHT22;33686;48.770;9.186;2022-08-05T18:05:15;25.80;99.60
47921;DHT22;33686;48.770;9.186;2022-08-05T18:07:41;25.90;99.70
47921;DHT22;33686;48.770;9.186;2022-08-05T18:10:07;25.90;99.90
47921;DHT22;33686;48.770;9.186;2022-08-05T18:12:32;25.80;99.90
47921;DHT22;33686;48.770;9.186;2022-08-05T18:14:58;25.60;99.90
47921;DHT22;33686;48.770;9.186;2022-08-05T18:17:23;25.50;99.90
47921;DHT22;33686;48.770;9.186;2022-08-05T18:19:49;25.60;99.90
47921;DHT22;33686;48.770;9.186;2022-08-05T18:22:14;25.50;99.90
47921;DHT22;33686;48.770;9.186;2022-08-05T18:24:40;25.30;99.90
47921;DHT22;33686;48.770;9.186;2022-08-05T18:27:06;25.10;99.90
47921;DHT22;33686;48.770;9.186;2022-08-05T18:29:32;24.90;99.90
47921;DHT22;33686;48.770;9.186;2022-08-05T18:31:57;25.00;99.90
47921;DHT22;33686;48.770;9.186;2022-08-05T18:34:23;25.00;99.90
47921;DHT22;33686;48.770;9.186;2022-08-05T18:36:48;24.90;99.90
47921;DHT22;33686;48.770;9.186;2022-08-05T18:39:14;25.00;99.90
47921;DHT22;33686;48.770;9.186;2022-08-05T18:41:39;24.80;99.90
47921;DHT22;33686;48.770;9.186;2022-08-05T18:44:05;24.70;99.90
47921;DHT22;33686;48.770;9.186;2022-08-05T18:46:30;24.80;99.90
47921;DHT22;33686;48.770;9.186;2022-08-05T18:48:56;24.70;99.90
47921;DHT22;33686;48.770;9.186;2022-08-05T18:51:41;24.70;99.90
47921;DHT22;33686;48.770;9.186;2022-08-05T18:54:26;24.50;99.90
47921;DHT22;33686;48.770;9.186;2022-08-05T18:56:51;24.60;99.90
47921;DHT22;33686;48.770;9.186;2022-08-05T18:59:17;24.70;99.90
47921;DHT22;33686;48.770;9.186;2022-08-05T19:01:42;24.50;99.90
47921;DHT22;33686;48.770;9.186;2022-08-05T19:04:08;24.40;99.90
47921;DHT22;33686;48.770;9.186;2022-08-05T19:06:33;24.40;99.90
47921;DHT22;33686;48.770;9.186;2022-08-05T19:08:59;24.20;99.90
47921;DHT22;33686;48.770;9.186;2022-08-05T19:11:24;24.20;99.90
47921;DHT22;33686;48.770;9.186;2022-08-05T19:13:50;24.20;99.90
47921;DHT22;33686;48.770;9.186;2022-08-05T19:16:15;24.10;99.90
47921;DHT22;33686;48.770;9.186;2022-08-05T19:18:41;24.30;99.90
47921;DHT22;33686;48.770;9.186;2022-08-05T19:21:06;24.20;99.90
47921;DHT22;33686;48.770;9.186;2022-08-05T19:23:32;24.10;99.90
47921;DHT22;33686;48.770;9.186;2022-08-05T19:25:57;23.90;99.90
47921;DHT22;33686;48.770;9.186;2022-08-05T19:28:23;23.80;99.90
47921;DHT22;33686;48.770;9.186;2022-08-05T19:30:48;23.80;99.90
47921;DHT22;33686;48.770;9.186;2022-08-05T19:33:14;23.90;99.90
47921;DHT22;33686;48.770;9.186;2022-08-05T19:35:39;23.90;99.90
47921;DHT22;33686;48.770;9.186;2022-08-05T19:38:05;23.90;99.90
47921;DHT22;33686;48.770;9.186;2022-08-05T19:40:31;23.90;99.90
47921;DHT22;33686;48.770;9.186;2022-08-05T19:42:56;24.00;99.90
47921;DHT22;33686;48.770;9.186;2022-08-05T19:45:22;23.70;99.90
47921;DHT22;33686;48.770;9.186;2022-08-05T19:47:47;23.70;99.90
47921;DHT22;33686;48.770;9.186;2022-08-05T19:50:13;23.70;99.90
47921;DHT22;33686;48.770;9.186;2022-08-05T19:52:38;23.80;99.90
47921;DHT22;33686;48.770;9.186;2022-08-05T19:55:04;23.80;99.90
47921;DHT22;33686;48.770;9.186;2022-08-05T19:57:29;23.90;99.90
47921;DHT22;33686;48.770;9.186;2022-08-05T19:59:55;23.50;99.90
47921;DHT22;33686;48.770;9.186;2022-08-05T20:02:20;23.30;99.90
47921;DHT22;33686;48.770;9.186;2022-08-05T20:04:46;23.30;99.90
47921;DHT22;33686;48.770;9.186;2022-08-05T20:07:12;23.10;99.90
47921;DHT22;33686;48.770;9.186;2022-08-05T20:09:37;23.10;99.90
47921;DHT22;33686;48.770;9.186;2022-08-05T20:12:03;22.80;99.90
47921;DHT22;33686;48.770;9.186;2022-08-05T20:14:28;22.70;99.90
47921;DHT22;33686;48.770;9.186;2022-08-05T20:16:54;22.60;99.90
47921;DHT22;33686;48.770;9.186;2022-08-05T20:19:22;22.50;99.90
47921;DHT22;33686;48.770;9.186;2022-08-05T20:21:48;22.20;99.90
47921;DHT22;33686;48.770;9.186;2022-08-05T20:24:13;22.00;99.90
47921;DHT22;33686;48.770;9.186;2022-08-05T20:26:39;21.80;99.90
47921;DHT22;33686;48.770;9.186;2022-08-05T20:29:04;21.50;99.90
47921;DHT22;33686;48.770;9.186;2022-08-05T20:31:30;21.70;99.90
47921;DHT22;33686;48.770;9.186;2022-08-05T20:33:56;21.60;99.90
47921;DHT22;33686;48.770;9.186;2022-08-05T20:36:22;21.50;99.90
47921;DHT22;33686;48.770;9.186;2022-08-05T20:38:49;21.60;99.90
47921;DHT22;33686;48.770;9.186;2022-08-05T20:41:14;21.80;99.90
47921;DHT22;33686;48.770;9.186;2022-08-05T20:43:41;21.60;99.90
47921;DHT22;33686;48.770;9.186;2022-08-05T20:46:06;21.60;99.90
47921;DHT22;33686;48.770;9.186;2022-08-05T20:48:34;21.70;99.90
47921;DHT22;33686;48.770;9.186;2022-08-05T20:50:59;21.40;99.90
47921;DHT22;33686;48.770;9.186;2022-08-05T20:53:25;21.60;99.90
47921;DHT22;33686;48.770;9.186;2022-08-05T20:55:50;21.70;99.90